Terminal Aerodrome Forecast
Issued by NWS

Home | Current Version | Previous Version | Text Only | Print | Product List | Glossary On
Versions: 1 2 3 4 5 6 7 8 9 10 11 12
579
FTUS46 KSEW 222339
TAFBFI
TAF
KBFI 222339Z 2300/2324 20013G22KT P6SM -SHRA SCT030 BKN045
     FM230200 17007KT P6SM VCSH SCT025 BKN035
     FM231200 16007KT P6SM SCT025 BKN045
     FM231900 16007KT P6SM SCT040 BKN060 OVC150=

USA.gov is the U.S. government's official web portal to all federal, state and local government web resources and services.